Time;durP1;ratioP1;P1;durP2;ratioP2;P2;SDS_P1;SDS_P2;PMS_P1;PMS_P2;Temp;Humidity;BMP_temperature;BMP_pressure;BME280_temperature;BME280_humidity;BME280_pressure;Samples;Min_cycle;Max_cycle;Signal;HPM_P1;HPM_P2
2021/06/15 00:00:37;;;;;;;10.77;5.53;;;15.00;99.90;;;;;;5090395;28;20056;-76
2021/06/15 00:03:02;;;;;;;6.65;5.50;;;15.10;99.90;;;;;;5091407;28;20047;-75
2021/06/15 00:05:29;;;;;;;9.95;6.68;;;15.10;99.90;;;;;;5089710;28;20518;-75
2021/06/15 00:07:54;;;;;;;9.77;6.25;;;15.10;99.90;;;;;;5091634;28;20092;-76
2021/06/15 00:10:22;;;;;;;10.98;6.32;;;15.10;99.90;;;;;;5075576;28;20024;-77
2021/06/15 00:12:50;;;;;;;7.32;5.85;;;15.10;99.90;;;;;;5071195;28;20024;-74
2021/06/15 00:15:17;;;;;;;8.20;6.18;;;15.00;99.90;;;;;;5070893;28;20025;-76
2021/06/15 00:17:43;;;;;;;8.88;5.82;;;14.90;99.90;;;;;;5070908;28;20029;-77
2021/06/15 00:20:10;;;;;;;9.88;5.75;;;14.80;99.90;;;;;;5070545;28;20034;-76
2021/06/15 00:22:35;;;;;;;9.65;6.25;;;14.80;99.90;;;;;;5071493;28;20025;-77
2021/06/15 00:25:01;;;;;;;13.93;5.75;;;14.80;99.90;;;;;;5070722;28;20043;-76
2021/06/15 00:27:29;;;;;;;6.85;6.00;;;14.70;99.90;;;;;;5071330;28;20032;-77
2021/06/15 00:29:55;;;;;;;9.40;6.18;;;14.70;99.90;;;;;;5070548;28;20382;-75
2021/06/15 00:32:21;;;;;;;9.32;6.55;;;14.60;99.90;;;;;;5071066;28;20028;-75
2021/06/15 00:34:46;;;;;;;8.23;6.28;;;14.60;99.90;;;;;;5071055;28;20381;-74
2021/06/15 00:37:12;;;;;;;6.18;5.57;;;14.60;99.90;;;;;;5070819;28;20021;-75
2021/06/15 00:39:38;;;;;;;7.75;6.18;;;14.50;99.90;;;;;;5070113;28;20032;-75
2021/06/15 00:42:06;;;;;;;10.43;6.60;;;14.50;99.90;;;;;;5069645;28;20063;-75
2021/06/15 00:44:32;;;;;;;7.90;6.30;;;14.50;99.90;;;;;;5072399;28;20016;-76
2021/06/15 00:46:58;;;;;;;7.85;6.63;;;14.50;99.90;;;;;;5074532;28;20089;-75
2021/06/15 00:49:27;;;;;;;13.52;6.72;;;14.40;99.90;;;;;;5074056;28;20499;-76
2021/06/15 00:51:54;;;;;;;9.20;6.68;;;14.40;99.90;;;;;;5073994;28;20382;-75
2021/06/15 00:54:22;;;;;;;11.38;5.97;;;14.50;99.90;;;;;;5074435;28;20115;-76
2021/06/15 00:56:47;;;;;;;7.00;6.30;;;14.50;99.90;;;;;;5073970;28;20553;-76
2021/06/15 00:59:13;;;;;;;9.20;6.45;;;14.40;99.90;;;;;;5074481;28;20166;-76
2021/06/15 01:01:39;;;;;;;9.45;6.57;;;14.50;99.90;;;;;;5072214;28;20036;-75
2021/06/15 01:04:05;;;;;;;8.13;6.57;;;14.40;99.90;;;;;;5073938;28;20116;-75
2021/06/15 01:06:58;;;;;;;10.27;6.30;;;14.40;99.90;;;;;;5074111;28;20106;-76
2021/06/15 01:09:43;;;;;;;7.63;6.28;;;14.40;99.90;;;;;;5080582;28;20084;-75
2021/06/15 01:12:42;;;;;;;9.00;6.63;;;14.30;99.90;;;;;;5094386;28;20024;-75
2021/06/15 01:15:13;;;;;;;12.73;6.82;;;14.30;99.90;;;;;;5094269;28;20020;-75
2021/06/15 01:18:12;;;;;;;7.10;6.40;;;14.20;99.90;;;;;;5094218;28;20028;-74
2021/06/15 01:20:41;;;;;;;9.30;6.65;;;14.20;99.90;;;;;;5093552;28;20027;-74
2021/06/15 01:23:25;;;;;;;9.48;6.72;;;14.10;99.90;;;;;;5094387;28;20048;-76
2021/06/15 01:26:18;;;;;;;8.55;6.47;;;14.10;99.90;;;;;;5093745;28;20028;-76
2021/06/15 01:28:49;;;;;;;12.23;6.45;;;14.00;99.90;;;;;;5092466;28;20020;-76
2021/06/15 01:31:34;;;;;;;7.82;6.40;;;14.00;99.90;;;;;;5093339;28;20077;-75
2021/06/15 01:34:09;;;;;;;12.55;7.53;;;14.00;99.90;;;;;;5093716;28;20366;-75
2021/06/15 01:36:42;;;;;;;12.20;7.20;;;13.90;99.90;;;;;;5093975;28;20058;-76
2021/06/15 01:39:15;;;;;;;9.02;6.70;;;13.90;99.90;;;;;;5089101;28;20414;-76
2021/06/15 01:42:01;;;;;;;12.02;6.68;;;13.90;99.90;;;;;;5072439;28;20020;-76
2021/06/15 01:44:29;;;;;;;11.85;7.32;;;13.80;99.90;;;;;;5064580;28;20482;-75
2021/06/15 01:47:08;;;;;;;8.27;6.60;;;13.80;99.90;;;;;;5091709;28;20044;-75
2021/06/15 01:49:43;;;;;;;10.18;7.38;;;13.80;99.90;;;;;;5093064;28;20048;-75
2021/06/15 01:52:09;;;;;;;11.30;7.38;;;13.80;99.90;;;;;;5092022;28;20028;-75
2021/06/15 01:54:37;;;;;;;9.48;6.90;;;13.80;99.90;;;;;;5078490;28;20539;-76
2021/06/15 01:57:05;;;;;;;11.40;7.15;;;13.80;99.90;;;;;;5073500;28;20161;-76
2021/06/15 01:59:31;;;;;;;10.93;7.18;;;13.70;99.90;;;;;;5087482;28;20039;-75
2021/06/15 02:02:00;;;;;;;9.13;6.88;;;13.70;99.90;;;;;;5085446;28;20028;-76
2021/06/15 02:04:28;;;;;;;8.25;7.35;;;13.70;99.90;;;;;;5078705;28;20458;-76
2021/06/15 02:06:55;;;;;;;12.27;7.07;;;13.70;99.90;;;;;;5072943;28;20078;-76
2021/06/15 02:09:23;;;;;;;11.73;7.68;;;13.70;99.90;;;;;;5072513;28;20031;-76
2021/06/15 02:11:50;;;;;;;8.68;6.75;;;13.60;99.90;;;;;;5074038;28;20020;-75
2021/06/15 02:14:23;;;;;;;10.30;7.22;;;13.50;99.90;;;;;;5093081;28;20028;-78
2021/06/15 02:16:53;;;;;;;9.60;7.30;;;13.50;99.90;;;;;;5091920;28;20026;-76
2021/06/15 02:19:21;;;;;;;11.95;7.38;;;13.60;99.90;;;;;;5091564;28;20482;-75
2021/06/15 02:21:52;;;;;;;8.70;7.10;;;13.60;99.90;;;;;;5093154;28;20027;-76
2021/06/15 02:24:19;;;;;;;8.38;6.85;;;13.50;99.90;;;;;;5091603;28;20036;-76
2021/06/15 02:26:46;;;;;;;10.93;7.00;;;13.50;99.90;;;;;;5093066;28;20020;-76
2021/06/15 02:29:12;;;;;;;10.00;7.40;;;13.40;99.90;;;;;;5091583;28;20474;-76
2021/06/15 02:31:50;;;;;;;9.40;7.10;;;13.40;99.90;;;;;;5085536;28;20040;-76
2021/06/15 02:34:19;;;;;;;8.63;7.60;;;13.40;99.90;;;;;;5072578;28;20029;-75
2021/06/15 02:36:46;;;;;;;12.88;7.28;;;13.40;99.90;;;;;;5071584;28;20468;-76
2021/06/15 02:39:16;;;;;;;13.55;7.85;;;13.30;99.90;;;;;;5072512;28;20024;-76
2021/06/15 02:41:43;;;;;;;10.60;7.55;;;13.40;99.90;;;;;;5071361;28;20101;-76
2021/06/15 02:44:15;;;;;;;12.13;7.30;;;13.30;99.90;;;;;;5072150;28;20028;-76
2021/06/15 02:46:43;;;;;;;9.27;7.63;;;13.30;99.90;;;;;;5072407;28;20039;-76
2021/06/15 02:49:14;;;;;;;9.38;8.25;;;13.30;99.90;;;;;;5072108;28;20497;-76
2021/06/15 02:51:47;;;;;;;10.88;7.07;;;13.30;99.90;;;;;;5071456;28;20024;-77
2021/06/15 02:54:25;;;;;;;11.68;8.30;;;13.30;99.90;;;;;;5068595;28;20078;-76
2021/06/15 02:56:54;;;;;;;9.95;8.27;;;13.10;99.90;;;;;;5071521;28;20024;-76
2021/06/15 02:59:20;;;;;;;9.70;8.30;;;13.00;99.90;;;;;;5071842;28;20047;-76
2021/06/15 03:01:48;;;;;;;13.13;8.88;;;13.00;99.90;;;;;;5072034;28;20032;-76
2021/06/15 03:04:14;;;;;;;17.25;8.70;;;13.00;99.90;;;;;;5071265;28;20021;-76
2021/06/15 03:06:40;;;;;;;11.88;8.63;;;13.10;99.90;;;;;;5072017;28;20059;-76
2021/06/15 03:09:06;;;;;;;10.50;8.80;;;13.00;99.90;;;;;;5071773;28;20021;-76
2021/06/15 03:11:35;;;;;;;12.60;9.23;;;13.00;99.90;;;;;;5071483;28;20032;-76
2021/06/15 03:14:18;;;;;;;10.43;9.10;;;13.00;99.90;;;;;;5071956;28;20514;-76
2021/06/15 03:16:45;;;;;;;10.23;8.43;;;12.90;99.90;;;;;;5072273;28;20025;-76
2021/06/15 03:19:26;;;;;;;17.80;9.20;;;12.90;99.90;;;;;;5072095;28;20482;-77
2021/06/15 03:22:04;;;;;;;12.85;9.00;;;12.90;99.90;;;;;;5072099;28;20391;-76
2021/06/15 03:24:32;;;;;;;11.77;8.63;;;12.80;99.90;;;;;;5073563;28;20044;-76
2021/06/15 03:27:14;;;;;;;13.55;8.73;;;12.90;99.90;;;;;;5073236;28;20078;-77
2021/06/15 03:29:41;;;;;;;15.27;9.33;;;12.90;99.90;;;;;;5072936;28;20024;-77
2021/06/15 03:32:11;;;;;;;13.73;8.55;;;12.90;99.90;;;;;;5073005;28;20273;-76
2021/06/15 03:34:46;;;;;;;9.70;7.93;;;12.90;99.90;;;;;;5076128;28;20039;-76
2021/06/15 03:37:20;;;;;;;11.43;7.75;;;12.90;99.90;;;;;;5076257;28;20410;-76
2021/06/15 03:39:46;;;;;;;10.32;7.93;;;12.90;99.90;;;;;;5074295;28;20453;-76
2021/06/15 03:42:19;;;;;;;9.13;7.70;;;12.80;99.90;;;;;;5076013;28;20028;-75
2021/06/15 03:44:57;;;;;;;11.50;8.93;;;12.80;99.90;;;;;;5078200;28;20112;-76
2021/06/15 03:47:24;;;;;;;15.00;8.93;;;12.70;99.90;;;;;;5078617;28;20032;-77
2021/06/15 03:49:54;;;;;;;12.60;8.77;;;12.70;99.90;;;;;;5079117;28;20039;-76
2021/06/15 03:52:26;;;;;;;9.07;8.15;;;12.70;99.90;;;;;;5081355;28;20036;-76
2021/06/15 03:54:53;;;;;;;13.77;8.57;;;12.70;99.90;;;;;;5074542;28;20039;-76
2021/06/15 03:57:19;;;;;;;11.63;9.13;;;12.70;99.90;;;;;;5071674;28;20467;-76
2021/06/15 03:59:48;;;;;;;11.43;8.95;;;12.80;99.90;;;;;;5069402;28;20032;-73
2021/06/15 04:02:14;;;;;;;12.45;9.05;;;12.80;99.90;;;;;;5070417;28;20021;-71
2021/06/15 04:04:42;;;;;;;13.57;8.70;;;12.70;99.90;;;;;;5069249;28;20043;-71
2021/06/15 04:07:14;;;;;;;15.20;9.00;;;12.80;99.90;;;;;;5097751;28;20027;-70
2021/06/15 04:09:42;;;;;;;10.43;9.27;;;12.80;99.90;;;;;;5073315;28;20379;-71
2021/06/15 04:12:09;;;;;;;12.18;8.70;;;12.80;99.90;;;;;;5070350;28;20100;-72
2021/06/15 04:14:36;;;;;;;12.70;9.02;;;12.90;99.90;;;;;;5070932;28;20035;-70
2021/06/15 04:17:04;;;;;;;16.00;10.05;;;13.00;99.90;;;;;;5071149;28;20154;-71
2021/06/15 04:19:40;;;;;;;14.38;9.90;;;13.00;99.90;;;;;;5091565;28;20035;-71
2021/06/15 04:22:09;;;;;;;14.50;9.48;;;13.00;99.90;;;;;;5094466;28;20031;-71
2021/06/15 04:24:37;;;;;;;14.80;9.70;;;13.00;99.90;;;;;;5136189;22;20588;-72
2021/06/15 04:27:05;;;;;;;17.38;9.00;;;12.90;99.90;;;;;;5053756;28;20048;-71
2021/06/15 04:29:31;;;;;;;16.90;7.50;;;13.20;99.90;;;;;;5054365;28;20040;-73
2021/06/15 04:32:00;;;;;;;11.27;7.70;;;13.10;99.90;;;;;;5054064;28;20025;-73
2021/06/15 04:34:27;;;;;;;10.00;7.80;;;13.30;99.90;;;;;;5056808;28;20051;-73
2021/06/15 04:36:59;;;;;;;10.57;8.80;;;13.30;99.90;;;;;;5058381;28;20567;-72
2021/06/15 04:39:31;;;;;;;12.75;8.65;;;13.30;99.90;;;;;;5058006;28;20032;-72
2021/06/15 04:42:00;;;;;;;10.93;8.05;;;13.30;99.90;;;;;;5059279;28;20056;-75
2021/06/15 04:44:30;;;;;;;15.85;9.20;;;13.20;99.90;;;;;;5059386;28;20032;-72
2021/06/15 04:47:00;;;;;;;12.75;9.13;;;13.20;99.90;;;;;;5060877;28;20379;-75
2021/06/15 04:49:46;;;;;;;10.82;9.43;;;13.30;99.90;;;;;;5054354;28;20021;-75
2021/06/15 04:52:15;;;;;;;11.65;7.97;;;13.20;99.90;;;;;;5053718;28;20036;-74
2021/06/15 04:54:46;;;;;;;13.45;8.30;;;13.30;99.90;;;;;;5063377;28;20450;-75
2021/06/15 04:57:17;;;;;;;14.25;9.27;;;13.20;99.90;;;;;;5075129;28;20032;-75
2021/06/15 04:59:46;;;;;;;16.77;8.70;;;13.40;99.90;;;;;;5082557;28;20036;-75
2021/06/15 05:02:12;;;;;;;7.88;7.07;;;13.30;99.90;;;;;;5084209;28;20055;-74
2021/06/15 05:04:39;;;;;;;12.00;7.78;;;13.50;99.90;;;;;;5085160;28;20025;-75
2021/06/15 05:07:05;;;;;;;15.07;8.85;;;13.60;99.90;;;;;;5078222;28;20020;-74
2021/06/15 05:09:33;;;;;;;15.88;8.20;;;13.70;99.90;;;;;;5048342;28;20029;-74
2021/06/15 05:12:00;;;;;;;12.43;7.32;;;13.90;99.90;;;;;;5052671;28;20024;-73
2021/06/15 05:14:28;;;;;;;13.40;7.85;;;14.00;99.90;;;;;;5054393;28;20025;-74
2021/06/15 05:16:55;;;;;;;8.93;7.43;;;14.20;99.90;;;;;;5053780;28;20154;-74
2021/06/15 05:19:24;;;;;;;13.57;7.15;;;14.20;99.90;;;;;;5053172;28;20017;-75
2021/06/15 05:22:02;;;;;;;10.45;7.18;;;14.30;99.90;;;;;;5053716;28;20048;-75
2021/06/15 05:24:28;;;;;;;9.57;6.65;;;14.60;99.90;;;;;;5052106;28;20029;-75
2021/06/15 05:26:54;;;;;;;9.15;6.50;;;14.60;99.90;;;;;;5055165;28;20047;-73
2021/06/15 05:29:19;;;;;;;10.38;6.78;;;14.70;99.90;;;;;;5066154;28;20024;-74
2021/06/15 05:31:45;;;;;;;12.60;7.80;;;14.90;99.90;;;;;;5086678;28;20390;-76
2021/06/15 05:34:11;;;;;;;12.43;6.95;;;14.80;99.90;;;;;;5086500;28;20035;-76
2021/06/15 05:36:37;;;;;;;10.43;7.20;;;14.80;99.90;;;;;;5079619;28;20027;-75
2021/06/15 05:39:04;;;;;;;11.63;7.25;;;14.80;99.90;;;;;;5074210;28;20085;-76
2021/06/15 05:41:29;;;;;;;8.13;7.18;;;14.80;99.90;;;;;;5078553;28;20348;-77
2021/06/15 05:43:55;;;;;;;14.82;7.88;;;14.80;99.90;;;;;;5077903;28;20048;-77
2021/06/15 05:46:21;;;;;;;11.52;7.05;;;14.80;99.90;;;;;;5068275;28;20021;-76
2021/06/15 05:48:46;;;;;;;10.65;6.60;;;14.90;99.90;;;;;;5053758;28;20394;-75
2021/06/15 05:51:12;;;;;;;8.40;6.80;;;15.00;99.90;;;;;;5054873;28;20079;-76
2021/06/15 05:53:38;;;;;;;11.45;7.88;;;15.10;99.90;;;;;;5034815;28;20475;-75
2021/06/15 05:56:04;;;;;;;10.32;6.82;;;15.20;99.90;;;;;;5042282;28;20407;-75
2021/06/15 05:58:30;;;;;;;12.30;7.32;;;15.40;99.90;;;;;;5054465;28;20025;-75
2021/06/15 06:00:56;;;;;;;9.02;7.20;;;15.50;99.90;;;;;;5055516;28;20103;-77
2021/06/15 06:03:29;;;;;;;9.48;6.80;;;15.60;99.90;;;;;;5072759;28;20025;-76
2021/06/15 06:08:39;;;;;;;9.93;6.70;;;15.70;99.90;;;;;;5073008;28;20031;-76
2021/06/15 06:11:05;;;;;;;11.60;7.15;;;15.70;99.90;;;;;;5073334;28;20107;-76
2021/06/15 06:13:31;;;;;;;11.98;7.10;;;15.90;99.90;;;;;;5072667;28;20029;-75
2021/06/15 06:15:59;;;;;;;13.00;6.65;;;16.10;99.90;;;;;;5072310;28;20024;-76
2021/06/15 06:18:26;;;;;;;10.57;6.53;;;16.20;99.90;;;;;;5073763;28;20496;-77
2021/06/15 06:20:51;;;;;;;12.73;6.35;;;16.20;99.90;;;;;;5073561;28;20084;-76
2021/06/15 06:23:18;;;;;;;14.23;6.30;;;16.20;99.90;;;;;;5073841;28;20098;-76
2021/06/15 06:25:44;;;;;;;11.38;6.90;;;16.40;99.90;;;;;;5071281;28;20040;-77
2021/06/15 06:28:10;;;;;;;15.20;6.07;;;16.50;99.90;;;;;;5055936;28;20388;-76
2021/06/15 06:30:36;;;;;;;11.20;5.93;;;16.50;99.90;;;;;;5052858;28;20033;-75
2021/06/15 06:33:03;;;;;;;9.20;5.88;;;16.70;99.90;;;;;;5053364;28;20029;-76
2021/06/15 06:35:29;;;;;;;12.25;6.15;;;16.80;99.90;;;;;;5051266;28;20083;-76
2021/06/15 06:37:54;;;;;;;8.23;5.97;;;17.00;99.90;;;;;;5051602;28;20040;-77
2021/06/15 06:40:20;;;;;;;11.05;5.75;;;17.20;99.90;;;;;;5052197;28;20453;-76
2021/06/15 06:42:46;;;;;;;12.48;5.97;;;17.30;99.90;;;;;;5051755;28;20510;-76
2021/06/15 06:45:12;;;;;;;10.85;5.72;;;17.40;99.90;;;;;;5052282;28;20033;-77
2021/06/15 06:47:38;;;;;;;9.18;5.68;;;17.60;99.90;;;;;;5052346;28;20029;-75
2021/06/15 06:50:06;;;;;;;6.95;4.90;;;17.70;99.90;;;;;;5058783;28;20027;-75
2021/06/15 06:52:32;;;;;;;8.70;4.78;;;17.80;99.90;;;;;;5072145;28;20028;-76
2021/06/15 06:54:57;;;;;;;8.70;4.82;;;17.90;99.90;;;;;;5071679;28;20017;-76
2021/06/15 06:57:23;;;;;;;10.25;5.13;;;18.00;99.90;;;;;;5061057;28;20029;-75
2021/06/15 06:59:49;;;;;;;6.63;4.80;;;18.20;99.90;;;;;;5051872;28;20601;-76
2021/06/15 07:02:15;;;;;;;7.82;5.05;;;18.40;99.90;;;;;;5053841;28;20502;-75
2021/06/15 07:04:40;;;;;;;10.90;4.75;;;18.60;99.90;;;;;;5052357;28;20029;-75
2021/06/15 07:07:06;;;;;;;5.97;4.65;;;18.80;99.90;;;;;;5051713;28;20021;-75
2021/06/15 07:09:32;;;;;;;7.18;4.72;;;18.90;99.90;;;;;;5051386;28;20017;-75
2021/06/15 07:11:57;;;;;;;7.45;4.20;;;19.10;99.90;;;;;;5051905;28;20096;-75
2021/06/15 07:14:23;;;;;;;13.02;4.50;;;19.30;99.90;;;;;;5050207;28;20025;-77
2021/06/15 07:16:49;;;;;;;6.47;4.03;;;19.40;99.90;;;;;;5050667;28;20386;-76
2021/06/15 07:19:14;;;;;;;5.97;4.43;;;19.60;99.90;;;;;;5050617;28;20025;-75
2021/06/15 07:21:40;;;;;;;6.97;3.90;;;19.80;99.90;;;;;;5051133;28;20108;-76
2021/06/15 07:24:06;;;;;;;6.70;3.40;;;20.00;99.90;;;;;;5052547;28;20021;-76
2021/06/15 07:26:32;;;;;;;8.43;4.00;;;20.00;99.90;;;;;;5051541;28;20037;-76
2021/06/15 07:28:59;;;;;;;7.25;4.10;;;20.20;99.90;;;;;;5052044;28;20017;-76
2021/06/15 07:31:25;;;;;;;8.60;4.57;;;20.30;99.90;;;;;;5051242;28;20032;-76
2021/06/15 07:33:50;;;;;;;5.30;3.40;;;20.40;99.90;;;;;;5051810;28;20036;-76
2021/06/15 07:36:16;;;;;;;6.10;3.70;;;20.60;99.90;;;;;;5051192;28;20029;-74
2021/06/15 07:38:42;;;;;;;7.55;4.03;;;20.60;99.90;;;;;;5051053;28;20021;-74
2021/06/15 07:41:07;;;;;;;9.32;4.45;;;20.70;99.90;;;;;;5050412;28;20033;-75
2021/06/15 07:43:34;;;;;;;11.07;4.30;;;20.90;99.90;;;;;;5051290;28;20033;-75
2021/06/15 07:45:59;;;;;;;11.93;3.95;;;20.90;99.90;;;;;;5051591;28;20423;-75
2021/06/15 07:48:25;;;;;;;9.27;3.75;;;21.10;99.90;;;;;;5052918;28;20032;-75
2021/06/15 07:50:51;;;;;;;6.00;3.33;;;21.50;99.90;;;;;;5064909;28;20036;-75
2021/06/15 07:53:18;;;;;;;8.95;3.90;;;21.80;99.90;;;;;;5073494;28;20036;-75
2021/06/15 07:55:43;;;;;;;8.65;4.22;;;22.00;99.90;;;;;;5076065;28;20067;-73
2021/06/15 07:58:09;;;;;;;11.25;3.65;;;22.30;99.90;;;;;;5075998;28;20048;-76
2021/06/15 08:00:35;;;;;;;9.57;3.20;;;22.50;99.90;;;;;;5074863;28;20445;-76
2021/06/15 08:03:00;;;;;;;9.45;3.33;;;22.80;99.90;;;;;;5056398;28;20427;-75
2021/06/15 08:05:26;;;;;;;6.97;3.22;;;23.00;99.90;;;;;;5054907;28;20020;-75
2021/06/15 08:07:52;;;;;;;12.02;3.47;;;23.10;99.90;;;;;;5055462;28;20062;-73
2021/06/15 08:10:19;;;;;;;4.25;3.08;;;23.30;99.90;;;;;;5054274;28;20024;-74
2021/06/15 08:12:46;;;;;;;4.32;3.15;;;23.30;99.90;;;;;;5054975;28;20665;-75
2021/06/15 08:15:12;;;;;;;5.78;3.30;;;23.50;99.90;;;;;;5055115;28;20033;-75
2021/06/15 08:17:38;;;;;;;10.98;4.00;;;23.70;99.90;;;;;;5055010;28;20166;-75
2021/06/15 08:20:04;;;;;;;9.18;3.42;;;23.80;99.90;;;;;;5052177;28;20035;-75
2021/06/15 08:22:30;;;;;;;10.07;3.75;;;23.90;99.90;;;;;;5054790;28;20021;-75
2021/06/15 08:24:56;;;;;;;10.18;3.80;;;24.00;99.90;;;;;;5054808;28;20094;-75
2021/06/15 08:27:22;;;;;;;6.38;3.25;;;24.00;99.90;;;;;;5054730;28;20044;-75
2021/06/15 08:29:48;;;;;;;4.30;2.70;;;24.00;99.90;;;;;;5053634;28;20033;-74
2021/06/15 08:32:14;;;;;;;4.15;2.70;;;24.30;99.90;;;;;;5057117;28;20066;-75
2021/06/15 08:34:41;;;;;;;12.10;3.55;;;24.80;99.90;;;;;;5057565;28;20032;-74
2021/06/15 08:37:07;;;;;;;5.82;3.38;;;24.90;99.90;;;;;;5054910;28;20024;-74
2021/06/15 08:39:33;;;;;;;8.50;2.60;;;24.60;99.90;;;;;;5053946;28;20078;-76
2021/06/15 08:41:58;;;;;;;5.97;3.00;;;24.60;99.90;;;;;;5054563;28;20029;-75
2021/06/15 08:44:24;;;;;;;5.53;2.90;;;25.00;99.90;;;;;;5054715;28;20074;-75
2021/06/15 08:46:50;;;;;;;3.53;2.50;;;25.30;99.90;;;;;;5054499;28;20112;-75
2021/06/15 08:49:16;;;;;;;5.82;2.67;;;25.70;99.90;;;;;;5054376;28;20032;-75
2021/06/15 08:51:42;;;;;;;6.90;2.60;;;26.40;98.30;;;;;;5069715;28;20028;-73
2021/06/15 08:54:11;;;;;;;5.57;2.47;;;27.00;98.80;;;;;;5048969;28;20026;-75
2021/06/15 08:56:37;;;;;;;5.80;2.47;;;27.80;97.10;;;;;;5033385;28;20096;-74
2021/06/15 08:59:25;;;;;;;3.55;2.78;;;28.20;95.00;;;;;;5035175;28;20499;-76
2021/06/15 09:02:00;;;;;;;9.13;2.80;;;27.20;95.10;;;;;;5034377;28;20057;-76
2021/06/15 09:04:25;;;;;;;4.57;2.17;;;26.70;94.70;;;;;;5033459;28;20041;-75
2021/06/15 09:06:56;;;;;;;3.25;2.22;;;27.40;95.80;;;;;;5034024;28;20022;-77
2021/06/15 09:09:21;;;;;;;4.75;2.35;;;28.00;93.70;;;;;;5047194;28;20025;-73
2021/06/15 09:11:47;;;;;;;5.43;2.20;;;28.00;92.90;;;;;;5053566;28;20753;-74
2021/06/15 09:14:13;;;;;;;2.53;2.28;;;28.60;93.60;;;;;;5054242;28;20210;-77
2021/06/15 09:16:47;;;;;;;5.32;2.33;;;28.60;91.50;;;;;;5053618;28;20021;-75
2021/06/15 09:19:24;;;;;;;7.47;2.22;;;28.20;92.20;;;;;;5054598;28;20463;-76
2021/06/15 09:21:53;;;;;;;5.40;2.20;;;28.60;92.30;;;;;;5054215;28;20033;-75
2021/06/15 09:24:23;;;;;;;2.15;1.95;;;28.60;91.00;;;;;;5053256;28;20024;-76
2021/06/15 09:27:06;;;;;;;6.47;2.35;;;28.60;91.10;;;;;;5053740;28;20029;-76
2021/06/15 09:29:37;;;;;;;4.07;1.98;;;29.00;91.40;;;;;;5054125;28;20013;-76
2021/06/15 09:32:04;;;;;;;5.32;2.13;;;28.90;91.10;;;;;;5053502;28;20031;-77
2021/06/15 09:34:29;;;;;;;5.68;2.33;;;29.10;91.20;;;;;;5053841;28;20032;-75
2021/06/15 09:36:55;;;;;;;2.67;2.13;;;29.00;87.20;;;;;;5053966;28;20116;-76
2021/06/15 09:39:21;;;;;;;5.38;2.10;;;29.50;89.50;;;;;;5055120;28;20036;-75
2021/06/15 09:41:48;;;;;;;7.80;2.13;;;29.70;84.20;;;;;;5055226;28;20545;-75
2021/06/15 09:44:14;;;;;;;2.22;1.58;;;29.90;82.70;;;;;;5054247;28;20033;-77
2021/06/15 09:46:47;;;;;;;3.58;1.52;;;29.70;78.80;;;;;;5056545;28;20021;-76
2021/06/15 09:49:13;;;;;;;4.50;1.85;;;29.80;79.30;;;;;;5056851;28;20556;-77
2021/06/15 09:51:41;;;;;;;1.58;1.42;;;30.00;77.20;;;;;;5073083;28;20025;-73
2021/06/15 09:54:07;;;;;;;3.00;1.80;;;30.10;77.50;;;;;;5073905;28;20028;-74
2021/06/15 09:56:33;;;;;;;4.38;1.70;;;30.20;77.90;;;;;;5072508;28;20477;-74
2021/06/15 09:58:59;;;;;;;3.58;1.60;;;30.60;77.40;;;;;;5073072;28;20115;-72
2021/06/15 10:01:35;;;;;;;6.03;1.85;;;31.20;73.30;;;;;;5072246;28;20028;-71
2021/06/15 10:04:16;;;;;;;5.47;1.90;;;30.90;69.40;;;;;;5072286;28;20027;-73
2021/06/15 10:06:53;;;;;;;5.22;2.00;;;30.60;72.60;;;;;;5073337;28;20390;-73
2021/06/15 10:09:24;;;;;;;8.45;2.00;;;30.90;73.50;;;;;;5059685;28;20372;-74
2021/06/15 10:11:51;;;;;;;6.50;1.83;;;31.00;73.60;;;;;;5053040;28;20025;-76
2021/06/15 10:14:17;;;;;;;5.32;2.05;;;30.80;74.10;;;;;;5053363;28;20036;-75
2021/06/15 10:16:43;;;;;;;3.45;1.90;;;30.50;72.80;;;;;;5052559;28;20028;-75
2021/06/15 10:19:10;;;;;;;6.72;2.30;;;30.10;73.60;;;;;;5052222;28;20029;-76
2021/06/15 10:21:36;;;;;;;3.88;2.03;;;29.80;73.30;;;;;;5052952;28;20035;-76
2021/06/15 10:24:07;;;;;;;4.28;2.15;;;30.10;76.00;;;;;;5052332;28;20025;-75
2021/06/15 10:26:34;;;;;;;5.63;2.07;;;30.10;73.60;;;;;;5109425;22;20035;-76
2021/06/15 10:29:01;;;;;;;5.25;2.08;;;30.20;73.80;;;;;;5100286;28;20020;-75
2021/06/15 10:31:33;;;;;;;2.67;2.10;;;30.40;73.20;;;;;;5101284;28;20066;-75
2021/06/15 10:33:59;;;;;;;7.18;1.90;;;30.80;73.90;;;;;;5091216;28;20020;-75
2021/06/15 10:36:45;;;;;;;5.68;1.95;;;30.80;70.70;;;;;;5091770;28;20028;-74
2021/06/15 10:39:39;;;;;;;5.32;1.70;;;30.60;68.80;;;;;;5091481;28;20044;-75
2021/06/15 10:42:15;;;;;;;7.35;2.10;;;30.10;70.00;;;;;;5090851;28;20028;-73
2021/06/15 10:44:42;;;;;;;5.72;2.00;;;29.70;70.60;;;;;;5090481;28;20383;-75
2021/06/15 10:47:12;;;;;;;5.40;1.85;;;29.30;72.10;;;;;;5091640;28;20081;-74
2021/06/15 10:50:00;;;;;;;5.90;2.03;;;29.40;71.80;;;;;;5089790;28;20027;-74
2021/06/15 10:52:46;;;;;;;1.70;1.60;;;29.40;72.20;;;;;;5090612;28;20062;-75
2021/06/15 10:55:45;;;;;;;3.92;1.50;;;29.80;70.60;;;;;;5090324;28;20388;-75
2021/06/15 10:58:11;;;;;;;5.70;2.05;;;29.70;69.50;;;;;;5090861;28;20020;-75
2021/06/15 11:00:52;;;;;;;5.57;2.22;;;29.70;69.40;;;;;;5089982;28;20052;-75
2021/06/15 11:03:21;;;;;;;1.70;1.60;;;29.90;69.90;;;;;;5091443;28;20023;-76
2021/06/15 11:05:52;;;;;;;2.88;2.30;;;30.40;74.60;;;;;;5089346;28;20028;-76
2021/06/15 11:08:24;;;;;;;4.05;2.00;;;30.90;70.90;;;;;;5090975;28;20031;-75
2021/06/15 11:10:49;;;;;;;;;;;30.90;69.00;;;;;;5089295;28;20024;-75
2021/06/15 11:13:15;;;;;;;5.45;1.90;;;30.90;68.40;;;;;;5090988;28;19941;-76
2021/06/15 11:16:01;;;;;;;5.70;2.47;;;30.80;67.60;;;;;;5091006;28;20034;-76
2021/06/15 11:18:27;;;;;;;5.47;2.33;;;31.10;70.70;;;;;;5088761;28;20036;-76
2021/06/15 11:20:54;;;;;;;2.67;2.08;;;31.30;66.40;;;;;;5088755;28;20020;-76
2021/06/15 11:23:25;;;;;;;3.03;2.08;;;31.10;67.80;;;;;;5090294;28;20017;-77
2021/06/15 11:25:55;;;;;;;5.40;2.17;;;30.90;71.00;;;;;;5090087;28;20070;-76
2021/06/15 11:28:47;;;;;;;3.85;2.00;;;30.90;68.50;;;;;;5090081;28;20393;-76
2021/06/15 11:31:19;;;;;;;;;;;31.10;68.40;;;;;;5087655;28;20074;-77
2021/06/15 11:34:04;;;;;;;5.07;1.95;;;31.30;66.50;;;;;;5088857;28;20081;-77
2021/06/15 11:36:57;;;;;;;6.45;2.30;;;31.10;67.10;;;;;;5109851;28;20034;-75
2021/06/15 11:39:23;;;;;;;3.72;2.15;;;31.00;65.40;;;;;;5105503;28;20035;-75
2021/06/15 11:42:07;;;;;;;6.70;1.98;;;31.10;65.40;;;;;;5110407;28;20016;-74
2021/06/15 11:44:56;;;;;;;2.42;2.13;;;30.80;67.40;;;;;;5110898;28;20020;-75
2021/06/15 11:47:22;;;;;;;6.57;2.35;;;30.90;66.10;;;;;;5108953;28;20027;-73
2021/06/15 11:50:08;;;;;;;2.60;2.08;;;31.00;67.40;;;;;;5105153;28;20126;-74
2021/06/15 11:52:35;;;;;;;6.22;1.95;;;31.40;68.00;;;;;;5089369;28;20054;-76
2021/06/15 11:55:01;;;;;;;3.85;2.05;;;32.00;66.10;;;;;;5090589;28;20028;-74
2021/06/15 11:57:27;;;;;;;5.03;2.28;;;32.20;63.10;;;;;;5090429;28;20384;-74
2021/06/15 11:59:53;;;;;;;3.75;2.20;;;32.10;61.50;;;;;;5089346;28;20055;-75
2021/06/15 12:02:20;;;;;;;3.88;2.15;;;32.10;62.70;;;;;;5090444;28;20429;-74
2021/06/15 12:05:11;;;;;;;6.57;2.17;;;32.00;61.10;;;;;;5094857;28;20028;-74
2021/06/15 12:07:58;;;;;;;3.20;2.20;;;32.00;62.20;;;;;;5109110;28;20408;-73
2021/06/15 12:10:25;;;;;;;3.03;2.17;;;32.10;60.50;;;;;;5108858;28;20015;-76
2021/06/15 12:12:57;;;;;;;4.93;2.00;;;32.20;62.60;;;;;;5109117;28;20030;-76
2021/06/15 12:15:27;;;;;;;2.22;1.98;;;32.20;62.30;;;;;;5110801;28;20491;-75
2021/06/15 12:17:53;;;;;;;7.45;2.00;;;32.50;61.80;;;;;;5110379;28;20030;-76
2021/06/15 12:20:32;;;;;;;2.38;2.10;;;32.70;60.70;;;;;;5108499;28;20016;-75
2021/06/15 12:22:59;;;;;;;3.38;1.95;;;32.60;58.20;;;;;;5114659;28;20023;-75
2021/06/15 12:25:34;;;;;;;4.28;2.10;;;32.20;59.70;;;;;;5116731;28;20125;-77
2021/06/15 12:28:14;;;;;;;5.93;2.08;;;32.40;59.90;;;;;;5096865;28;20051;-76
2021/06/15 12:30:41;;;;;;;5.03;2.22;;;32.80;59.40;;;;;;5109072;28;20035;-75
2021/06/15 12:33:13;;;;;;;4.75;1.70;;;32.80;58.20;;;;;;5111444;28;20058;-75
2021/06/15 12:35:39;;;;;;;2.78;1.80;;;32.70;58.40;;;;;;5097654;28;20032;-74
2021/06/15 12:38:15;;;;;;;6.93;2.20;;;32.60;58.50;;;;;;5089777;28;20492;-76
2021/06/15 12:40:44;;;;;;;11.57;2.63;;;32.70;59.00;;;;;;5090828;28;20028;-75
2021/06/15 12:43:10;;;;;;;4.40;2.20;;;32.10;63.00;;;;;;5092719;28;20035;-76
2021/06/15 12:45:41;;;;;;;3.47;1.90;;;32.90;61.50;;;;;;5097696;28;20016;-75
2021/06/15 12:48:24;;;;;;;6.38;2.30;;;33.40;60.00;;;;;;5113726;28;20020;-75
2021/06/15 12:51:08;;;;;;;5.05;2.15;;;33.70;57.40;;;;;;5112042;28;20028;-77
2021/06/15 12:53:36;;;;;;;4.57;1.95;;;33.60;56.20;;;;;;5113615;28;20027;-75
2021/06/15 12:56:17;;;;;;;3.97;2.03;;;33.80;56.70;;;;;;5112820;28;20031;-75
2021/06/15 12:58:45;;;;;;;3.80;1.90;;;33.90;56.80;;;;;;5113562;28;20401;-74